sensor_id;sensor_type;location;lat;lon;timestamp;pressure;altitude;pressure_sealevel;temperature;humidity
35694;BME280;21812;55.536;37.664;2022-11-20T00:03:34;99772.00;;;-0.32;73.93
35694;BME280;21812;55.536;37.664;2022-11-20T00:06:09;99767.94;;;-0.25;73.51
35694;BME280;21812;55.536;37.664;2022-11-20T00:08:35;99788.94;;;-0.25;73.43
35694;BME280;21812;55.536;37.664;2022-11-20T00:11:04;99777.13;;;-0.20;73.67
35694;BME280;21812;55.536;37.664;2022-11-20T00:13:31;99783.94;;;-0.17;73.31
35694;BME280;21812;55.536;37.664;2022-11-20T00:16:02;99782.25;;;-0.18;73.11
35694;BME280;21812;55.536;37.664;2022-11-20T00:18:28;99789.63;;;-0.12;72.98
35694;BME280;21812;55.536;37.664;2022-11-20T00:21:01;99787.28;;;-0.04;72.74
35694;BME280;21812;55.536;37.664;2022-11-20T00:23:27;99774.16;;;-0.15;72.82
35694;BME280;21812;55.536;37.664;2022-11-20T00:25:52;99763.66;;;-0.26;72.55
35694;BME280;21812;55.536;37.664;2022-11-20T00:28:18;99776.28;;;-0.20;72.79
35694;BME280;21812;55.536;37.664;2022-11-20T00:30:44;99782.84;;;-0.03;72.88
35694;BME280;21812;55.536;37.664;2022-11-20T00:33:09;99786.78;;;0.03;72.42
35694;BME280;21812;55.536;37.664;2022-11-20T00:35:35;99789.88;;;0.08;72.00
35694;BME280;21812;55.536;37.664;2022-11-20T00:38:01;99788.94;;;-0.03;71.79
35694;BME280;21812;55.536;37.664;2022-11-20T00:40:26;99769.13;;;-0.18;72.16
35694;BME280;21812;55.536;37.664;2022-11-20T00:42:52;99787.38;;;-0.05;72.30
35694;BME280;21812;55.536;37.664;2022-11-20T00:45:17;99785.00;;;-0.08;71.86
35694;BME280;21812;55.536;37.664;2022-11-20T00:47:43;99791.66;;;-0.04;72.15
35694;BME280;21812;55.536;37.664;2022-11-20T00:50:09;99787.28;;;-0.04;71.81
35694;BME280;21812;55.536;37.664;2022-11-20T00:52:34;99784.75;;;-0.05;71.94
35694;BME280;21812;55.536;37.664;2022-11-20T00:55:00;99785.59;;;-0.05;72.27
35694;BME280;21812;55.536;37.664;2022-11-20T00:57:28;99780.81;;;-0.11;72.19
35694;BME280;21812;55.536;37.664;2022-11-20T00:59:53;99785.09;;;-0.10;72.19
35694;BME280;21812;55.536;37.664;2022-11-20T01:02:19;99790.59;;;-0.02;71.93
35694;BME280;21812;55.536;37.664;2022-11-20T01:04:45;99785.69;;;0.05;71.85
35694;BME280;21812;55.536;37.664;2022-11-20T01:07:10;99787.72;;;0.13;71.70
35694;BME280;21812;55.536;37.664;2022-11-20T01:09:36;99787.84;;;0.11;71.27
35694;BME280;21812;55.536;37.664;2022-11-20T01:12:02;99790.59;;;-0.02;71.72
35694;BME280;21812;55.536;37.664;2022-11-20T01:14:28;99787.97;;;-0.02;72.02
35694;BME280;21812;55.536;37.664;2022-11-20T01:16:53;99789.53;;;0.01;71.54
35694;BME280;21812;55.536;37.664;2022-11-20T01:19:22;99740.53;;;-0.32;71.56
35694;BME280;21812;55.536;37.664;2022-11-20T01:21:51;99743.72;;;-0.40;71.95
35694;BME280;21812;55.536;37.664;2022-11-20T01:24:19;99794.44;;;-0.06;72.00
35694;BME280;21812;55.536;37.664;2022-11-20T01:26:47;99747.66;;;-0.34;71.93
35694;BME280;21812;55.536;37.664;2022-11-20T01:29:16;99750.28;;;-0.34;72.23
35694;BME280;21812;55.536;37.664;2022-11-20T01:31:42;99795.50;;;-0.08;71.91
35694;BME280;21812;55.536;37.664;2022-11-20T01:34:11;99792.16;;;-0.10;71.89
35694;BME280;21812;55.536;37.664;2022-11-20T01:36:38;99795.38;;;-0.07;72.01
35694;BME280;21812;55.536;37.664;2022-11-20T01:39:07;99804.19;;;0.04;71.28
35694;BME280;21812;55.536;37.664;2022-11-20T01:41:34;99737.63;;;-0.18;71.21
35694;BME280;21812;55.536;37.664;2022-11-20T01:44:21;99741.47;;;-0.22;70.64
35694;BME280;21812;55.536;37.664;2022-11-20T01:46:57;99749.94;;;-0.30;71.52
35694;BME280;21812;55.536;37.664;2022-11-20T01:49:46;99786.78;;;-0.09;71.67
35694;BME280;21812;55.536;37.664;2022-11-20T01:54:53;99766.59;;;-0.53;71.91
35694;BME280;21812;55.536;37.664;2022-11-20T01:57:21;99813.75;;;-0.18;71.89
35694;BME280;21812;55.536;37.664;2022-11-20T01:59:53;99733.69;;;-0.69;70.88
35694;BME280;21812;55.536;37.664;2022-11-20T02:02:21;99813.75;;;-0.29;71.10
35694;BME280;21812;55.536;37.664;2022-11-20T02:04:47;99835.72;;;-0.30;71.08
35694;BME280;21812;55.536;37.664;2022-11-20T02:07:14;99827.94;;;-0.32;71.22
35694;BME280;21812;55.536;37.664;2022-11-20T02:09:41;99832.47;;;-0.34;71.36
35694;BME280;21812;55.536;37.664;2022-11-20T02:12:06;99840.25;;;-0.32;71.20
35694;BME280;21812;55.536;37.664;2022-11-20T02:14:52;99836.16;;;-0.25;71.28
35694;BME280;21812;55.536;37.664;2022-11-20T02:17:18;99834.03;;;-0.20;70.76
35694;BME280;21812;55.536;37.664;2022-11-20T02:19:43;99841.44;;;-0.14;70.30
35694;BME280;21812;55.536;37.664;2022-11-20T02:22:19;99818.28;;;-0.31;70.66
35694;BME280;21812;55.536;37.664;2022-11-20T02:24:49;99836.66;;;-0.31;70.25
35694;BME280;21812;55.536;37.664;2022-11-20T02:27:17;99846.06;;;-0.29;70.25
35694;BME280;21812;55.536;37.664;2022-11-20T02:29:55;99854.44;;;-0.24;70.19
35694;BME280;21812;55.536;37.664;2022-11-20T02:34:51;99851.56;;;-0.32;70.09
35694;BME280;21812;55.536;37.664;2022-11-20T02:37:18;99854.91;;;-0.30;70.08
35694;BME280;21812;55.536;37.664;2022-11-20T02:39:46;99866.84;;;-0.26;70.53
35694;BME280;21812;55.536;37.664;2022-11-20T02:42:12;99857.88;;;-0.23;70.00
35694;BME280;21812;55.536;37.664;2022-11-20T02:44:37;99853.59;;;-0.24;69.67
35694;BME280;21812;55.536;37.664;2022-11-20T02:47:03;99851.47;;;-0.19;69.76
35694;BME280;21812;55.536;37.664;2022-11-20T02:49:29;99853.50;;;-0.23;69.40
35694;BME280;21812;55.536;37.664;2022-11-20T02:51:54;99853.34;;;-0.21;69.47
35694;BME280;21812;55.536;37.664;2022-11-20T02:54:20;99853.13;;;-0.18;69.56
35694;BME280;21812;55.536;37.664;2022-11-20T02:56:46;99866.97;;;-0.16;69.20
35694;BME280;21812;55.536;37.664;2022-11-20T02:59:11;99852.38;;;-0.31;69.16
35694;BME280;21812;55.536;37.664;2022-11-20T03:01:37;99810.63;;;-0.57;69.60
35694;BME280;21812;55.536;37.664;2022-11-20T03:04:03;99851.19;;;-0.38;69.96
35694;BME280;21812;55.536;37.664;2022-11-20T03:06:28;99855.59;;;-0.39;69.70
35694;BME280;21812;55.536;37.664;2022-11-20T03:08:54;99841.38;;;-0.48;70.30
35694;BME280;21812;55.536;37.664;2022-11-20T03:11:20;99860.25;;;-0.43;69.87
35694;BME280;21812;55.536;37.664;2022-11-20T03:13:45;99863.44;;;-0.50;70.19
35694;BME280;21812;55.536;37.664;2022-11-20T03:16:20;99820.81;;;-0.76;70.43
35694;BME280;21812;55.536;37.664;2022-11-20T03:18:49;99829.16;;;-0.71;70.24
35694;BME280;21812;55.536;37.664;2022-11-20T03:21:17;99875.25;;;-0.45;70.79
35694;BME280;21812;55.536;37.664;2022-11-20T03:23:42;99871.81;;;-0.45;70.35
35694;BME280;21812;55.536;37.664;2022-11-20T03:29:02;99868.34;;;-0.34;70.41
35694;BME280;21812;55.536;37.664;2022-11-20T03:31:34;99874.06;;;-0.41;70.50
35694;BME280;21812;55.536;37.664;2022-11-20T03:34:00;99876.94;;;-0.44;70.72
35694;BME280;21812;55.536;37.664;2022-11-20T03:36:27;99875.75;;;-0.40;70.43
35694;BME280;21812;55.536;37.664;2022-11-20T03:38:54;99872.88;;;-0.36;70.91
35694;BME280;21812;55.536;37.664;2022-11-20T03:41:25;99855.47;;;-0.49;69.94
35694;BME280;21812;55.536;37.664;2022-11-20T03:43:55;99835.03;;;-0.68;69.83
35694;BME280;21812;55.536;37.664;2022-11-20T03:46:21;99883.63;;;-0.40;70.34
35694;BME280;21812;55.536;37.664;2022-11-20T03:48:47;99884.09;;;-0.34;69.82
35694;BME280;21812;55.536;37.664;2022-11-20T03:51:16;99861.22;;;-0.32;70.10
35694;BME280;21812;55.536;37.664;2022-11-20T03:53:43;99891.91;;;-0.10;69.43
35694;BME280;21812;55.536;37.664;2022-11-20T03:56:10;99892.50;;;-0.07;68.63
35694;BME280;21812;55.536;37.664;2022-11-20T03:58:39;99888.94;;;-0.06;69.28
35694;BME280;21812;55.536;37.664;2022-11-20T04:01:17;99835.53;;;-0.40;68.72
35694;BME280;21812;55.536;37.664;2022-11-20T04:03:43;99894.63;;;-0.23;68.99
35694;BME280;21812;55.536;37.664;2022-11-20T04:08:37;99905.34;;;-0.37;69.61
35694;BME280;21812;55.536;37.664;2022-11-20T04:11:20;99918.72;;;-0.29;70.51
35694;BME280;21812;55.536;37.664;2022-11-20T04:13:47;99860.44;;;-0.68;70.01
35694;BME280;21812;55.536;37.664;2022-11-20T04:16:14;99905.19;;;-0.47;70.03
35694;BME280;21812;55.536;37.664;2022-11-20T04:18:40;99919.38;;;-0.50;70.36
35694;BME280;21812;55.536;37.664;2022-11-20T04:21:06;99909.00;;;-0.51;70.24
35694;BME280;21812;55.536;37.664;2022-11-20T04:23:32;99921.78;;;-0.47;70.47
35694;BME280;21812;55.536;37.664;2022-11-20T04:26:25;99921.31;;;-0.41;70.07
35694;BME280;21812;55.536;37.664;2022-11-20T04:28:51;99913.28;;;-0.50;70.08
35694;BME280;21812;55.536;37.664;2022-11-20T04:31:25;99882.28;;;-0.81;70.09
35694;BME280;21812;55.536;37.664;2022-11-20T04:33:51;99927.22;;;-0.50;70.39
35694;BME280;21812;55.536;37.664;2022-11-20T04:36:21;99880.13;;;-0.87;70.36
35694;BME280;21812;55.536;37.664;2022-11-20T04:38:54;99922.69;;;-0.59;70.26
35694;BME280;21812;55.536;37.664;2022-11-20T04:41:21;99933.91;;;-0.57;70.12
35694;BME280;21812;55.536;37.664;2022-11-20T04:43:52;99935.81;;;-0.48;70.49
35694;BME280;21812;55.536;37.664;2022-11-20T04:46:19;99921.63;;;-0.56;69.81
35694;BME280;21812;55.536;37.664;2022-11-20T04:48:45;99942.75;;;-0.47;70.51
35694;BME280;21812;55.536;37.664;2022-11-20T04:51:11;99934.53;;;-0.42;70.29
35694;BME280;21812;55.536;37.664;2022-11-20T04:53:37;99951.91;;;-0.28;69.74
35694;BME280;21812;55.536;37.664;2022-11-20T04:56:05;99952.50;;;-0.25;68.97
35694;BME280;21812;55.536;37.664;2022-11-20T04:58:31;99960.94;;;-0.32;69.04
35694;BME280;21812;55.536;37.664;2022-11-20T05:01:04;99954.47;;;-0.40;69.27
35694;BME280;21812;55.536;37.664;2022-11-20T05:03:30;99952.19;;;-0.44;69.90
35694;BME280;21812;55.536;37.664;2022-11-20T05:05:56;99961.63;;;-0.42;70.09
35694;BME280;21812;55.536;37.664;2022-11-20T05:08:25;99967.97;;;-0.33;69.77
35694;BME280;21812;55.536;37.664;2022-11-20T05:10:50;99962.56;;;-0.43;69.16
35694;BME280;21812;55.536;37.664;2022-11-20T05:13:16;99966.38;;;-0.47;69.96
35694;BME280;21812;55.536;37.664;2022-11-20T05:15:41;99972.06;;;-0.53;69.97
35694;BME280;21812;55.536;37.664;2022-11-20T05:18:07;99982.00;;;-0.45;69.97
35694;BME280;21812;55.536;37.664;2022-11-20T05:20:32;99984.72;;;-0.47;69.73
35694;BME280;21812;55.536;37.664;2022-11-20T05:22:58;99988.69;;;-0.41;69.77
35694;BME280;21812;55.536;37.664;2022-11-20T05:25:24;99994.72;;;-0.28;69.45
35694;BME280;21812;55.536;37.664;2022-11-20T05:27:50;99984.56;;;-0.21;68.58
35694;BME280;21812;55.536;37.664;2022-11-20T05:30:16;99995.69;;;-0.17;68.32
35694;BME280;21812;55.536;37.664;2022-11-20T05:32:41;99989.81;;;-0.21;68.53
35694;BME280;21812;55.536;37.664;2022-11-20T05:35:07;99992.97;;;-0.16;69.21
35694;BME280;21812;55.536;37.664;2022-11-20T05:37:33;99989.47;;;-0.28;68.43
35694;BME280;21812;55.536;37.664;2022-11-20T05:39:58;99996.31;;;-0.14;68.91
35694;BME280;21812;55.536;37.664;2022-11-20T05:42:24;100009.94;;;-0.09;68.31
35694;BME280;21812;55.536;37.664;2022-11-20T05:45:01;100006.19;;;-0.17;68.04
35694;BME280;21812;55.536;37.664;2022-11-20T05:47:28;100022.28;;;-0.22;68.20
35694;BME280;21812;55.536;37.664;2022-11-20T05:49:58;100025.13;;;-0.25;68.65
35694;BME280;21812;55.536;37.664;2022-11-20T05:52:24;100025.13;;;-0.25;68.56
35694;BME280;21812;55.536;37.664;2022-11-20T05:54:49;100029.75;;;-0.29;68.50
35694;BME280;21812;55.536;37.664;2022-11-20T05:57:16;100036.31;;;-0.34;68.52
35694;BME280;21812;55.536;37.664;2022-11-20T05:59:42;99979.16;;;-0.66;68.70
35694;BME280;21812;55.536;37.664;2022-11-20T06:02:08;100032.13;;;-0.37;69.27
35694;BME280;21812;55.536;37.664;2022-11-20T06:04:34;100044.38;;;-0.25;69.36
35694;BME280;21812;55.536;37.664;2022-11-20T06:06:59;100044.28;;;-0.12;69.29
35694;BME280;21812;55.536;37.664;2022-11-20T06:09:25;100048.34;;;-0.08;69.20
35694;BME280;21812;55.536;37.664;2022-11-20T06:11:50;100056.56;;;-0.12;68.27
35694;BME280;21812;55.536;37.664;2022-11-20T06:14:16;100066.34;;;-0.14;68.08
35694;BME280;21812;55.536;37.664;2022-11-20T06:16:42;100068.16;;;-0.15;68.40
35694;BME280;21812;55.536;37.664;2022-11-20T06:19:07;100070.97;;;-0.18;68.33
35694;BME280;21812;55.536;37.664;2022-11-20T06:21:33;100078.34;;;-0.23;68.61
35694;BME280;21812;55.536;37.664;2022-11-20T06:23:58;100073.00;;;-0.22;68.40
35694;BME280;21812;55.536;37.664;2022-11-20T06:26:26;100032.69;;;-0.45;68.31
35694;BME280;21812;55.536;37.664;2022-11-20T06:28:53;100077.91;;;-0.17;68.09
35694;BME280;21812;55.536;37.664;2022-11-20T06:31:21;100037.22;;;-0.47;68.45
35694;BME280;21812;55.536;37.664;2022-11-20T06:33:47;100085.06;;;-0.19;68.90
35694;BME280;21812;55.536;37.664;2022-11-20T06:36:15;100079.53;;;-0.27;68.51
35694;BME280;21812;55.536;37.664;2022-11-20T06:38:41;100077.53;;;-0.24;68.62
35694;BME280;21812;55.536;37.664;2022-11-20T06:41:12;100061.88;;;-0.25;67.99
35694;BME280;21812;55.536;37.664;2022-11-20T06:43:40;100076.69;;;-0.24;68.53
35694;BME280;21812;55.536;37.664;2022-11-20T06:46:06;100078.34;;;-0.23;68.25
35694;BME280;21812;55.536;37.664;2022-11-20T06:48:32;100063.06;;;-0.29;68.07
35694;BME280;21812;55.536;37.664;2022-11-20T06:50:58;100081.59;;;-0.20;68.12
35694;BME280;21812;55.536;37.664;2022-11-20T06:53:24;100079.03;;;-0.08;68.04
35694;BME280;21812;55.536;37.664;2022-11-20T06:55:51;100081.19;;;-0.02;67.92
35694;BME280;21812;55.536;37.664;2022-11-20T06:58:19;100066.63;;;-0.06;68.09
35694;BME280;21812;55.536;37.664;2022-11-20T07:00:45;100062.66;;;-0.12;67.93
35694;BME280;21812;55.536;37.664;2022-11-20T07:03:11;100063.38;;;-0.10;68.31
35694;BME280;21812;55.536;37.664;2022-11-20T07:05:37;100043.28;;;-0.22;67.78
35694;BME280;21812;55.536;37.664;2022-11-20T07:08:04;100059.19;;;-0.12;67.94
35694;BME280;21812;55.536;37.664;2022-11-20T07:10:30;100068.00;;;-0.13;67.94
35694;BME280;21812;55.536;37.664;2022-11-20T07:12:56;100080.75;;;-0.20;68.28
35694;BME280;21812;55.536;37.664;2022-11-20T07:15:24;100092.25;;;-0.10;68.29
35694;BME280;21812;55.536;37.664;2022-11-20T07:17:50;100068.34;;;-0.18;68.14
35694;BME280;21812;55.536;37.664;2022-11-20T07:20:16;100076.75;;;-0.13;68.22
35694;BME280;21812;55.536;37.664;2022-11-20T07:22:42;100080.16;;;-0.24;68.34
35694;BME280;21812;55.536;37.664;2022-11-20T07:25:09;100083.13;;;-0.28;68.84
35694;BME280;21812;55.536;37.664;2022-11-20T07:27:34;100076.22;;;-0.18;68.78
35694;BME280;21812;55.536;37.664;2022-11-20T07:30:01;100086.78;;;-0.07;68.24
35694;BME280;21812;55.536;37.664;2022-11-20T07:32:26;100077.13;;;-0.06;67.75
35694;BME280;21812;55.536;37.664;2022-11-20T07:34:52;100086.47;;;0.09;67.39
35694;BME280;21812;55.536;37.664;2022-11-20T07:37:18;100090.59;;;0.13;67.15
35694;BME280;21812;55.536;37.664;2022-11-20T07:39:43;100094.25;;;0.11;67.17
35694;BME280;21812;55.536;37.664;2022-11-20T07:42:09;100099.75;;;0.08;67.30
35694;BME280;21812;55.536;37.664;2022-11-20T07:44:36;100109.84;;;0.01;67.42
35694;BME280;21812;55.536;37.664;2022-11-20T07:47:02;100096.56;;;-0.09;67.78
35694;BME280;21812;55.536;37.664;2022-11-20T07:49:27;100105.44;;;0.02;67.88
35694;BME280;21812;55.536;37.664;2022-11-20T07:51:53;100107.84;;;0.05;67.62
35694;BME280;21812;55.536;37.664;2022-11-20T07:54:19;100111.66;;;0.01;67.92
35694;BME280;21812;55.536;37.664;2022-11-20T07:56:46;100102.81;;;0.02;68.06
35694;BME280;21812;55.536;37.664;2022-11-20T07:59:12;100085.34;;;-0.11;68.22
35694;BME280;21812;55.536;37.664;2022-11-20T08:01:38;100111.91;;;0.09;67.98
35694;BME280;21812;55.536;37.664;2022-11-20T08:04:04;100107.06;;;0.15;67.88
35694;BME280;21812;55.536;37.664;2022-11-20T08:06:30;100119.22;;;0.16;67.56
35694;BME280;21812;55.536;37.664;2022-11-20T08:08:56;100121.97;;;0.15;67.48
35694;BME280;21812;55.536;37.664;2022-11-20T08:11:21;100126.84;;;0.08;67.74
35694;BME280;21812;55.536;37.664;2022-11-20T08:14:06;100114.88;;;0.04;67.83
35694;BME280;21812;55.536;37.664;2022-11-20T08:16:41;100123.66;;;0.16;68.56
35694;BME280;21812;55.536;37.664;2022-11-20T08:19:07;100130.50;;;0.30;67.46
35694;BME280;21812;55.536;37.664;2022-11-20T08:21:33;100126.44;;;0.26;66.99
35694;BME280;21812;55.536;37.664;2022-11-20T08:23:59;100125.09;;;0.20;67.26
35694;BME280;21812;55.536;37.664;2022-11-20T08:26:25;100127.59;;;0.22;67.11
35694;BME280;21812;55.536;37.664;2022-11-20T08:28:55;100129.78;;;0.28;67.40
35694;BME280;21812;55.536;37.664;2022-11-20T08:31:21;100129.78;;;0.28;67.07
35694;BME280;21812;55.536;37.664;2022-11-20T08:33:47;100127.72;;;0.20;67.22
35694;BME280;21812;55.536;37.664;2022-11-20T08:36:13;100124.16;;;0.21;67.43
35694;BME280;21812;55.536;37.664;2022-11-20T08:38:39;100115.31;;;0.22;67.45
35694;BME280;21812;55.536;37.664;2022-11-20T08:41:05;100135.19;;;0.37;67.14
35694;BME280;21812;55.536;37.664;2022-11-20T08:44:06;100061.91;;;0.10;67.25
35694;BME280;21812;55.536;37.664;2022-11-20T08:48:59;100136.19;;;0.59;66.08
35694;BME280;21812;55.536;37.664;2022-11-20T08:51:24;100153.88;;;0.57;66.40
35694;BME280;21812;55.536;37.664;2022-11-20T08:53:50;100161.13;;;0.42;66.76
35694;BME280;21812;55.536;37.664;2022-11-20T08:56:16;100176.28;;;0.38;66.96
35694;BME280;21812;55.536;37.664;2022-11-20T08:58:43;100169.06;;;0.29;66.91
35694;BME280;21812;55.536;37.664;2022-11-20T09:01:08;100166.56;;;0.28;67.26
35694;BME280;21812;55.536;37.664;2022-11-20T09:03:34;100172.97;;;0.24;67.57
35694;BME280;21812;55.536;37.664;2022-11-20T09:06:02;100135.72;;;-0.06;67.67
35694;BME280;21812;55.536;37.664;2022-11-20T09:08:28;100188.28;;;0.30;67.71
35694;BME280;21812;55.536;37.664;2022-11-20T09:10:55;100186.16;;;0.35;67.32
35694;BME280;21812;55.536;37.664;2022-11-20T09:13:22;100172.63;;;0.28;67.15
35694;BME280;21812;55.536;37.664;2022-11-20T09:15:53;100195.75;;;0.47;67.53
35694;BME280;21812;55.536;37.664;2022-11-20T09:18:23;100193.06;;;0.60;67.06
35694;BME280;21812;55.536;37.664;2022-11-20T09:20:49;100203.13;;;0.66;66.78
35694;BME280;21812;55.536;37.664;2022-11-20T09:23:15;100184.69;;;0.55;66.26
35694;BME280;21812;55.536;37.664;2022-11-20T09:25:42;100212.75;;;0.54;67.01
35694;BME280;21812;55.536;37.664;2022-11-20T09:28:08;100222.66;;;0.51;67.00
35694;BME280;21812;55.536;37.664;2022-11-20T09:30:34;100212.97;;;0.51;67.23
35694;BME280;21812;55.536;37.664;2022-11-20T09:32:59;100222.91;;;0.48;67.60
35694;BME280;21812;55.536;37.664;2022-11-20T09:35:25;100200.13;;;0.35;67.51
35694;BME280;21812;55.536;37.664;2022-11-20T09:37:50;100227.81;;;0.52;67.34
35694;BME280;21812;55.536;37.664;2022-11-20T09:42:56;100227.44;;;0.57;67.54
35694;BME280;21812;55.536;37.664;2022-11-20T09:51:04;100229.91;;;0.71;67.90
35694;BME280;21812;55.536;37.664;2022-11-20T09:54:06;100189.16;;;0.42;67.94
35694;BME280;21812;55.536;37.664;2022-11-20T09:56:38;100223.88;;;0.58;67.98
35694;BME280;21812;55.536;37.664;2022-11-20T09:59:06;100216.47;;;0.52;68.45
35694;BME280;21812;55.536;37.664;2022-11-20T10:01:35;100233.38;;;0.72;68.32
35694;BME280;21812;55.536;37.664;2022-11-20T10:04:12;100153.34;;;0.41;68.20
35694;BME280;21812;55.536;37.664;2022-11-20T10:06:41;100235.66;;;0.76;67.60
35694;BME280;21812;55.536;37.664;2022-11-20T10:11:52;100230.13;;;0.68;68.50
35694;BME280;21812;55.536;37.664;2022-11-20T10:20:24;100248.97;;;0.86;68.50
35694;BME280;21812;55.536;37.664;2022-11-20T10:28:20;100254.00;;;1.01;67.21
35694;BME280;21812;55.536;37.664;2022-11-20T10:30:59;100248.16;;;1.08;66.69
35694;BME280;21812;55.536;37.664;2022-11-20T10:33:27;100257.97;;;1.06;66.52
35694;BME280;21812;55.536;37.664;2022-11-20T10:39:57;100227.31;;;0.83;66.64
35694;BME280;21812;55.536;37.664;2022-11-20T10:41:52;100225.41;;;0.85;66.34
35694;BME280;21812;55.536;37.664;2022-11-20T10:44:26;100257.16;;;1.17;65.97
35694;BME280;21812;55.536;37.664;2022-11-20T10:47:15;100225.94;;;1.01;65.66
35694;BME280;21812;55.536;37.664;2022-11-20T10:49:43;100284.56;;;1.14;64.28
35694;BME280;21812;55.536;37.664;2022-11-20T10:57:50;100222.81;;;0.61;64.72
35694;BME280;21812;55.536;37.664;2022-11-20T11:00:18;100272.94;;;0.82;64.36
35694;BME280;21812;55.536;37.664;2022-11-20T11:02:54;100227.91;;;0.51;64.58
35694;BME280;21812;55.536;37.664;2022-11-20T11:05:44;100288.06;;;0.91;65.04
35694;BME280;21812;55.536;37.664;2022-11-20T11:08:17;100286.81;;;0.84;64.44
35694;BME280;21812;55.536;37.664;2022-11-20T11:11:02;100286.50;;;0.88;64.49
35694;BME280;21812;55.536;37.664;2022-11-20T11:13:32;100283.22;;;0.73;64.41
35694;BME280;21812;55.536;37.664;2022-11-20T11:15:58;100282.31;;;0.62;64.71
35694;BME280;21812;55.536;37.664;2022-11-20T11:18:33;100286.28;;;0.67;64.76
35694;BME280;21812;55.536;37.664;2022-11-20T11:21:02;100272.84;;;0.59;63.91
35694;BME280;21812;55.536;37.664;2022-11-20T11:23:34;100279.34;;;0.66;64.07
35694;BME280;21812;55.536;37.664;2022-11-20T11:26:04;100273.31;;;0.53;63.29
35694;BME280;21812;55.536;37.664;2022-11-20T11:28:30;100286.56;;;0.51;63.82
35694;BME280;21812;55.536;37.664;2022-11-20T11:30:56;100286.91;;;0.47;64.21
35694;BME280;21812;55.536;37.664;2022-11-20T11:33:26;100296.47;;;0.48;64.63
35694;BME280;21812;55.536;37.664;2022-11-20T11:35:54;100267.72;;;0.33;64.69
35694;BME280;21812;55.536;37.664;2022-11-20T11:38:34;100293.09;;;0.46;65.02
35694;BME280;21812;55.536;37.664;2022-11-20T11:41:01;100292.25;;;0.45;65.48
35694;BME280;21812;55.536;37.664;2022-11-20T11:43:30;100293.53;;;0.39;65.36
35694;BME280;21812;55.536;37.664;2022-11-20T11:46:28;100268.34;;;0.37;65.20
35694;BME280;21812;55.536;37.664;2022-11-20T11:51:41;100311.38;;;0.47;64.66
35694;BME280;21812;55.536;37.664;2022-11-20T11:54:26;100291.88;;;0.38;64.71
35694;BME280;21812;55.536;37.664;2022-11-20T11:57:00;100304.06;;;0.39;64.64
35694;BME280;21812;55.536;37.664;2022-11-20T11:59:31;100311.94;;;0.39;64.84
35694;BME280;21812;55.536;37.664;2022-11-20T12:02:02;100260.91;;;-0.06;63.93
35694;BME280;21812;55.536;37.664;2022-11-20T12:04:46;100298.34;;;0.22;64.30
35694;BME280;21812;55.536;37.664;2022-11-20T12:07:22;100309.22;;;0.28;63.69
35694;BME280;21812;55.536;37.664;2022-11-20T12:09:56;100248.19;;;0.01;63.84
35694;BME280;21812;55.536;37.664;2022-11-20T12:12:58;100302.69;;;0.34;64.03
35694;BME280;21812;55.536;37.664;2022-11-20T12:15:29;100310.19;;;0.27;63.81
35694;BME280;21812;55.536;37.664;2022-11-20T12:17:56;100307.25;;;0.19;64.26
35694;BME280;21812;55.536;37.664;2022-11-20T12:20:26;100298.88;;;0.14;64.29
35694;BME280;21812;55.536;37.664;2022-11-20T12:23:02;100305.16;;;0.24;64.42
35694;BME280;21812;55.536;37.664;2022-11-20T12:25:34;100241.81;;;-0.21;64.24
35694;BME280;21812;55.536;37.664;2022-11-20T12:28:16;100270.22;;;0.11;64.40
35694;BME280;21812;55.536;37.664;2022-11-20T12:34:47;100289.34;;;0.37;63.69
35694;BME280;21812;55.536;37.664;2022-11-20T12:37:10;100302.28;;;0.40;64.06
35694;BME280;21812;55.536;37.664;2022-11-20T12:39:48;100280.16;;;0.18;64.11
35694;BME280;21812;55.536;37.664;2022-11-20T12:56:01;100318.16;;;0.38;63.34
35694;BME280;21812;55.536;37.664;2022-11-20T13:01:52;100330.09;;;0.55;63.14
35694;BME280;21812;55.536;37.664;2022-11-20T13:07:14;100293.78;;;0.36;62.77
35694;BME280;21812;55.536;37.664;2022-11-20T13:09:49;100315.44;;;0.40;63.25
35694;BME280;21812;55.536;37.664;2022-11-20T13:17:52;100309.16;;;0.17;64.40
35694;BME280;21812;55.536;37.664;2022-11-20T13:20:20;100324.63;;;0.22;64.04
35694;BME280;21812;55.536;37.664;2022-11-20T13:22:50;100312.56;;;0.06;63.93
35694;BME280;21812;55.536;37.664;2022-11-20T13:25:30;100346.06;;;0.15;64.29
35694;BME280;21812;55.536;37.664;2022-11-20T13:27:58;100290.13;;;-0.11;64.56
35694;BME280;21812;55.536;37.664;2022-11-20T13:30:27;100337.41;;;0.26;63.98
35694;BME280;21812;55.536;37.664;2022-11-20T13:36:05;100295.09;;;0.18;63.53
35694;BME280;21812;55.536;37.664;2022-11-20T13:38:47;100341.06;;;0.36;63.80
35694;BME280;21812;55.536;37.664;2022-11-20T13:41:30;100343.38;;;0.28;64.06
35694;BME280;21812;55.536;37.664;2022-11-20T13:46:44;100322.88;;;-0.04;64.53
35694;BME280;21812;55.536;37.664;2022-11-20T13:55:16;100345.00;;;0.18;64.23
35694;BME280;21812;55.536;37.664;2022-11-20T14:00:16;100347.00;;;0.14;64.25
35694;BME280;21812;55.536;37.664;2022-11-20T14:02:43;100351.63;;;0.11;63.88
35694;BME280;21812;55.536;37.664;2022-11-20T14:05:19;100358.56;;;0.12;64.08
35694;BME280;21812;55.536;37.664;2022-11-20T14:07:47;100361.13;;;0.37;64.52
35694;BME280;21812;55.536;37.664;2022-11-20T14:10:28;100312.53;;;0.56;61.97
35694;BME280;21812;55.536;37.664;2022-11-20T14:12:54;100372.94;;;0.93;62.06
35694;BME280;21812;55.536;37.664;2022-11-20T14:15:38;100369.72;;;1.01;61.33
35694;BME280;21812;55.536;37.664;2022-11-20T14:18:14;100378.81;;;1.21;62.19
35694;BME280;21812;55.536;37.664;2022-11-20T14:20:43;100374.72;;;1.63;62.52
35694;BME280;21812;55.536;37.664;2022-11-20T14:23:10;100326.25;;;1.43;60.34
35694;BME280;21812;55.536;37.664;2022-11-20T14:25:36;100359.44;;;1.80;60.01
35694;BME280;21812;55.536;37.664;2022-11-20T14:28:03;100358.19;;;1.50;59.66
35694;BME280;21812;55.536;37.664;2022-11-20T14:30:42;100358.19;;;1.50;60.24